Time;durP1;ratioP1;P1;durP2;ratioP2;P2;SDS_P1;SDS_P2;PMS_P1;PMS_P2;Temp;Humidity;BMP_temperature;BMP_pressure;BME280_temperature;BME280_humidity;BME280_pressure;Samples;Min_cycle;Max_cycle;Signal;HPM_P1;HPM_P2
2022/05/16 00:03:02;;;;;;;4.13;2.05;;;23.60;51.70;;;;;;10085763;28;20029;-67
2022/05/16 00:07:53;;;;;;;2.47;1.97;;;23.50;52.00;;;;;;10046377;28;20025;-68
2022/05/16 00:12:44;;;;;;;4.45;2.17;;;23.50;52.10;;;;;;10081496;28;20029;-68
2022/05/16 00:17:35;;;;;;;4.45;2.10;;;23.30;52.40;;;;;;10083244;28;20529;-67
2022/05/16 00:22:26;;;;;;;4.10;2.33;;;23.10;53.10;;;;;;10087654;28;20025;-67
2022/05/16 00:27:17;;;;;;;2.97;2.30;;;23.20;53.00;;;;;;10086583;28;20052;-68
2022/05/16 00:32:09;;;;;;;3.72;2.08;;;23.40;53.20;;;;;;10078163;28;20033;-68
2022/05/16 00:36:59;;;;;;;2.97;2.22;;;23.40;53.40;;;;;;10083279;28;20057;-67
2022/05/16 00:41:52;;;;;;;3.35;2.28;;;23.40;53.30;;;;;;10096542;28;20033;-68
2022/05/16 00:46:42;;;;;;;4.32;2.38;;;23.50;53.50;;;;;;10094822;28;20013;-67
2022/05/16 00:51:56;;;;;;;3.72;2.78;;;23.60;53.50;;;;;;10087983;28;20029;-68
2022/05/16 00:56:51;;;;;;;5.60;2.50;;;23.70;53.70;;;;;;10066957;28;20079;-68
2022/05/16 01:06:54;;;;;;;3.92;2.45;;;23.60;54.70;;;;;;10078639;28;20098;-67
2022/05/16 01:11:45;;;;;;;3.55;2.33;;;23.60;54.20;;;;;;10083117;28;20053;-67
2022/05/16 01:16:36;;;;;;;5.03;2.33;;;23.50;54.60;;;;;;10080869;28;20033;-68
2022/05/16 01:21:39;;;;;;;3.75;2.40;;;23.40;54.60;;;;;;10089553;28;20056;-68
2022/05/16 01:26:31;;;;;;;3.20;1.98;;;23.40;55.00;;;;;;10092982;28;20044;-67
2022/05/16 01:31:23;;;;;;;3.65;2.00;;;23.30;55.10;;;;;;10092051;28;20426;-67
2022/05/16 01:36:13;;;;;;;6.05;2.40;;;23.20;55.20;;;;;;10087862;28;20462;-67
2022/05/16 01:41:08;;;;;;;4.22;2.58;;;23.20;55.40;;;;;;10061229;28;20075;-67
2022/05/16 01:45:59;;;;;;;4.18;2.30;;;23.20;55.80;;;;;;10064860;28;20103;-67
2022/05/16 01:50:51;;;;;;;4.28;2.13;;;23.20;56.00;;;;;;10076640;28;20104;-66
2022/05/16 01:55:42;;;;;;;4.03;2.40;;;23.00;56.40;;;;;;10097960;28;20040;-67
2022/05/16 02:00:33;;;;;;;4.93;2.58;;;23.00;56.80;;;;;;10090866;28;20049;-67
2022/05/16 02:05:25;;;;;;;3.38;2.13;;;23.00;57.10;;;;;;10091842;28;20032;-68
2022/05/16 02:10:17;;;;;;;4.68;2.50;;;22.90;57.50;;;;;;10083688;28;20041;-68
2022/05/16 02:15:11;;;;;;;4.07;2.60;;;22.80;57.70;;;;;;10086858;28;20139;-67
2022/05/16 02:20:02;;;;;;;5.57;2.97;;;22.70;58.30;;;;;;10094449;28;20045;-68
2022/05/16 02:24:52;;;;;;;3.17;2.47;;;22.60;58.50;;;;;;10092723;28;20086;-67
2022/05/16 02:29:44;;;;;;;4.25;2.60;;;22.60;58.70;;;;;;10084273;28;20524;-66
2022/05/16 02:34:35;;;;;;;2.97;2.55;;;22.50;59.30;;;;;;10084839;28;20025;-67
2022/05/16 02:39:26;;;;;;;5.80;2.78;;;22.40;59.80;;;;;;10073887;28;20060;-67
2022/05/16 02:44:17;;;;;;;3.05;2.22;;;22.30;60.10;;;;;;10082372;28;20037;-67
2022/05/16 02:49:08;;;;;;;3.63;2.75;;;22.40;60.40;;;;;;10069325;28;20052;-67
2022/05/16 02:53:59;;;;;;;4.38;2.72;;;22.30;60.50;;;;;;10094861;28;20025;-66
2022/05/16 02:58:49;;;;;;;3.03;2.65;;;22.30;60.80;;;;;;10091179;28;20043;-67
2022/05/16 03:03:41;;;;;;;3.55;2.67;;;22.20;61.20;;;;;;10088691;28;20027;-67
2022/05/16 03:08:32;;;;;;;5.70;2.60;;;22.20;61.50;;;;;;10082557;28;20032;-67
2022/05/16 03:13:23;;;;;;;4.28;3.10;;;22.10;61.90;;;;;;10081729;28;20017;-67
2022/05/16 03:18:14;;;;;;;5.30;2.88;;;22.10;62.10;;;;;;10085306;28;20039;-66
2022/05/16 03:23:05;;;;;;;3.33;2.53;;;22.20;62.20;;;;;;10089899;28;20427;-67
2022/05/16 03:27:55;;;;;;;5.43;2.75;;;22.10;62.40;;;;;;10091089;28;20025;-69
2022/05/16 03:32:46;;;;;;;4.45;2.70;;;22.00;62.80;;;;;;10080561;28;20035;-67
2022/05/16 03:37:37;;;;;;;4.47;2.60;;;22.00;63.20;;;;;;10076729;28;20228;-68
2022/05/16 03:42:27;;;;;;;3.35;2.60;;;22.20;63.20;;;;;;10073936;28;20108;-67
2022/05/16 03:47:18;;;;;;;5.15;2.92;;;22.30;63.10;;;;;;10071236;28;20021;-67
2022/05/16 03:52:08;;;;;;;3.95;2.35;;;22.30;63.20;;;;;;10078657;28;20029;-67
2022/05/16 03:56:59;;;;;;;2.75;2.17;;;22.30;63.50;;;;;;10087552;28;20499;-67
2022/05/16 04:01:51;;;;;;;3.63;2.50;;;22.20;63.90;;;;;;10080867;28;20048;-67
2022/05/16 04:06:42;;;;;;;5.68;2.72;;;22.20;64.10;;;;;;10080531;28;20020;-68
2022/05/16 04:11:34;;;;;;;5.90;4.03;;;22.20;64.40;;;;;;10076119;28;20025;-67
2022/05/16 04:16:24;;;;;;;4.20;2.60;;;22.10;64.60;;;;;;10088295;28;20055;-66
2022/05/16 04:21:15;;;;;;;4.18;2.45;;;22.10;64.60;;;;;;10093907;28;20037;-68
2022/05/16 04:26:06;;;;;;;5.75;2.05;;;22.10;64.80;;;;;;10099300;28;20053;-67
2022/05/16 04:30:58;;;;;;;4.28;2.30;;;22.00;65.00;;;;;;10089041;28;20071;-67
2022/05/16 04:35:49;;;;;;;3.63;2.70;;;22.00;65.10;;;;;;10085106;28;20623;-66
2022/05/16 04:42:40;;;;;;;4.80;2.70;;;22.00;65.20;;;;;;10065365;28;20246;-68
2022/05/16 04:45:51;;;;;;;5.45;2.50;;;22.00;65.30;;;;;;10058245;28;20116;-68
2022/05/16 04:50:41;;;;;;;4.93;2.83;;;22.10;65.30;;;;;;10077925;28;20104;-68
2022/05/16 04:55:32;;;;;;;2.55;2.13;;;22.10;65.40;;;;;;10095413;28;20093;-70
2022/05/16 05:00:25;;;;;;;5.15;2.85;;;22.20;65.50;;;;;;10092062;28;20114;-67
2022/05/16 05:05:16;;;;;;;3.75;2.35;;;22.20;65.60;;;;;;10086835;28;20494;-67
2022/05/16 05:15:19;;;;;;;7.82;2.22;;;22.50;65.70;;;;;;10087774;28;20036;-67
2022/05/16 05:20:14;;;;;;;3.30;2.15;;;22.50;65.60;;;;;;10098878;28;20056;-69
2022/05/16 05:25:05;;;;;;;4.15;2.00;;;22.70;65.40;;;;;;10092752;28;20051;-68
2022/05/16 05:29:56;;;;;;;4.15;2.45;;;22.60;65.80;;;;;;10086858;28;20388;-67
2022/05/16 05:34:46;;;;;;;6.00;2.38;;;22.40;66.40;;;;;;10088397;28;20028;-67
2022/05/16 05:39:38;;;;;;;3.17;2.00;;;22.40;66.40;;;;;;10085283;28;20082;-66
2022/05/16 05:44:28;;;;;;;3.70;2.05;;;22.40;66.30;;;;;;10065405;28;21043;-66
2022/05/16 05:49:19;;;;;;;3.63;2.28;;;22.60;66.30;;;;;;10085269;28;20044;-66
2022/05/16 05:54:10;;;;;;;4.10;2.00;;;22.50;66.60;;;;;;10095918;28;20024;-67
2022/05/16 05:59:01;;;;;;;4.18;2.35;;;22.70;66.40;;;;;;10090950;28;20509;-68
2022/05/16 06:03:51;;;;;;;5.28;1.85;;;22.80;66.30;;;;;;10090237;28;20044;-68
2022/05/16 06:08:42;;;;;;;4.72;2.40;;;22.90;66.40;;;;;;10084618;28;20112;-66
2022/05/16 06:13:33;;;;;;;5.25;2.85;;;23.10;66.20;;;;;;10094794;28;20108;-66
2022/05/16 06:18:24;;;;;;;2.45;1.95;;;23.10;66.80;;;;;;10091695;28;20189;-67
2022/05/16 06:23:14;;;;;;;2.88;2.00;;;22.80;66.70;;;;;;10091853;28;20048;-68
2022/05/16 06:28:22;;;;;;;3.20;2.28;;;22.80;66.90;;;;;;10085695;28;20032;-66
2022/05/16 06:33:14;;;;;;;6.53;2.60;;;22.80;67.20;;;;;;10089650;28;20032;-68
2022/05/16 06:38:10;;;;;;;3.78;2.17;;;22.70;67.20;;;;;;10097144;28;20495;-67
2022/05/16 06:43:01;;;;;;;5.45;2.60;;;22.60;67.20;;;;;;10098367;28;20020;-67
2022/05/16 06:47:52;;;;;;;3.40;2.45;;;22.60;67.40;;;;;;10097024;28;20517;-67
2022/05/16 06:52:43;;;;;;;5.10;2.63;;;22.60;67.50;;;;;;10083954;28;20029;-67
2022/05/16 06:57:33;;;;;;;11.15;3.10;;;22.70;67.50;;;;;;10091703;28;20381;-68
2022/05/16 07:02:24;;;;;;;4.68;2.30;;;22.70;67.60;;;;;;10094172;28;20037;-67
2022/05/16 07:07:15;;;;;;;5.43;2.63;;;22.70;67.80;;;;;;10091890;28;20020;-67
2022/05/16 07:12:07;;;;;;;6.72;2.15;;;22.80;67.80;;;;;;10088485;28;20036;-68
2022/05/16 07:16:58;;;;;;;4.63;3.05;;;22.80;68.10;;;;;;10081287;28;20029;-67
2022/05/16 07:21:49;;;;;;;4.05;2.38;;;23.00;67.80;;;;;;10095814;28;20410;-67
2022/05/16 07:31:51;;;;;;;3.53;2.13;;;23.50;67.40;;;;;;10096402;28;20102;-67
2022/05/16 07:36:41;;;;;;;7.70;2.80;;;23.70;67.10;;;;;;10082013;28;20036;-68
2022/05/16 07:41:32;;;;;;;4.28;2.20;;;23.80;67.20;;;;;;10086495;28;20040;-67
2022/05/16 07:46:23;;;;;;;4.25;2.30;;;23.70;67.30;;;;;;10059213;28;20391;-70
2022/05/16 07:51:14;;;;;;;4.32;2.45;;;23.90;67.00;;;;;;10071330;28;20040;-68
2022/05/16 07:56:04;;;;;;;5.25;3.03;;;24.10;66.60;;;;;;10093859;28;20818;-67
2022/05/16 08:00:56;;;;;;;5.03;2.38;;;24.50;66.00;;;;;;10095041;28;20062;-67
2022/05/16 08:05:47;;;;;;;3.40;2.03;;;24.60;65.40;;;;;;10083082;28;20056;-67
2022/05/16 08:10:39;;;;;;;3.45;1.63;;;24.60;65.20;;;;;;10087493;28;20490;-67
2022/05/16 08:15:33;;;;;;;3.78;1.58;;;24.80;64.20;;;;;;10080579;28;20043;-67
2022/05/16 08:20:25;;;;;;;5.10;1.70;;;25.10;63.20;;;;;;10092572;28;20036;-67
2022/05/16 08:25:16;;;;;;;3.50;1.27;;;25.30;62.30;;;;;;10094361;28;20045;-67
2022/05/16 08:30:08;;;;;;;2.65;1.02;;;25.40;61.80;;;;;;10093631;28;20045;-67
2022/05/16 08:35:02;;;;;;;2.28;1.30;;;25.80;60.90;;;;;;10089294;28;20361;-67
2022/05/16 08:39:52;;;;;;;1.85;1.30;;;26.00;60.00;;;;;;10084797;28;20205;-66
2022/05/16 08:45:19;;;;;;;3.42;1.27;;;26.10;59.40;;;;;;10063323;28;20154;-67
2022/05/16 08:50:23;;;;;;;3.00;1.80;;;26.00;58.40;;;;;;10062116;28;20202;-66
2022/05/16 08:55:55;;;;;;;3.40;1.50;;;25.60;59.00;;;;;;10070646;28;20128;-66
2022/05/16 09:00:49;;;;;;;4.20;1.70;;;25.30;59.20;;;;;;10055337;28;20357;-67
2022/05/16 09:05:47;;;;;;;6.83;1.90;;;24.80;59.50;;;;;;10087198;28;20112;-66
2022/05/16 09:11:01;;;;;;;2.92;1.45;;;24.20;61.00;;;;;;10084045;28;20040;-66
2022/05/16 09:16:09;;;;;;;3.35;1.70;;;23.40;62.90;;;;;;10088097;28;20527;-66
2022/05/16 09:21:14;;;;;;;2.97;1.67;;;22.80;64.50;;;;;;10089991;28;20091;-66
2022/05/16 09:26:08;;;;;;;3.30;1.50;;;22.40;66.40;;;;;;10083978;28;20462;-66
2022/05/16 09:31:08;;;;;;;2.83;1.50;;;22.20;67.40;;;;;;10087045;28;20498;-66
2022/05/16 09:36:05;;;;;;;5.50;1.70;;;22.30;68.20;;;;;;10091326;28;20275;-66
2022/05/16 09:40:59;;;;;;;3.67;1.40;;;22.60;68.20;;;;;;10090147;28;20021;-68
2022/05/16 09:45:55;;;;;;;5.25;1.70;;;22.60;69.00;;;;;;10092875;28;20024;-68
2022/05/16 09:51:01;;;;;;;4.75;2.15;;;22.50;69.80;;;;;;10087214;28;20025;-71
2022/05/16 09:55:53;;;;;;;;;;;22.50;70.90;;;;;;10079750;28;20545;-66
2022/05/16 10:00:53;;;;;;;3.40;1.90;;;22.20;71.50;;;;;;10093601;28;20283;-63
2022/05/16 10:05:47;;;;;;;6.32;2.03;;;22.20;71.70;;;;;;10093567;28;20049;-65
2022/05/16 10:10:42;;;;;;;6.65;1.98;;;22.30;72.10;;;;;;10085514;28;20031;-67
2022/05/16 10:15:34;;;;;;;3.65;2.22;;;22.10;73.30;;;;;;10080288;28;20291;-66
2022/05/16 10:20:35;;;;;;;5.85;2.38;;;22.10;73.80;;;;;;10096591;28;20041;-67
2022/05/16 10:25:32;;;;;;;3.53;2.28;;;22.30;74.30;;;;;;10087160;28;20494;-68
2022/05/16 10:30:26;;;;;;;5.15;1.50;;;22.30;74.70;;;;;;10078308;28;20033;-68
2022/05/16 10:35:20;;;;;;;2.27;1.37;;;22.40;75.00;;;;;;10090300;28;20025;-72
2022/05/16 10:40:14;;;;;;;6.80;2.00;;;22.50;75.10;;;;;;10084276;28;20310;-68
2022/05/16 10:45:10;;;;;;;1.60;1.38;;;22.50;75.20;;;;;;10093006;28;20043;-68
2022/05/16 10:50:04;;;;;;;5.03;1.15;;;22.30;75.70;;;;;;10095262;28;20029;-67
2022/05/16 10:54:55;;;;;;;4.35;1.65;;;22.60;75.80;;;;;;10091436;28;20431;-66
2022/05/16 10:59:54;;;;;;;4.63;1.77;;;23.40;75.20;;;;;;10095394;28;20040;-65
2022/05/16 11:05:00;;;;;;;2.72;1.40;;;23.50;75.50;;;;;;10088760;28;20605;-68
2022/05/16 11:09:53;;;;;;;3.33;1.55;;;23.30;76.30;;;;;;10096712;28;20307;-60
2022/05/16 11:14:52;;;;;;;2.15;1.50;;;23.40;76.20;;;;;;10090175;28;20032;-64
2022/05/16 11:19:52;;;;;;;3.00;1.50;;;23.80;75.50;;;;;;10091707;28;20091;-65
2022/05/16 11:25:10;;;;;;;3.15;1.65;;;23.70;76.00;;;;;;10093810;28;20055;-66
2022/05/16 11:30:07;;;;;;;6.50;1.55;;;23.90;75.80;;;;;;10088202;28;20033;-64
2022/05/16 11:35:06;;;;;;;2.70;1.23;;;24.20;75.00;;;;;;10092346;28;20032;-67
2022/05/16 11:40:18;;;;;;;3.05;1.42;;;24.30;74.90;;;;;;10073192;28;20029;-68
2022/05/16 11:45:16;;;;;;;2.30;1.25;;;24.30;74.60;;;;;;10073234;28;20029;-67
2022/05/16 11:50:16;;;;;;;1.60;1.42;;;24.70;74.20;;;;;;10092974;28;20036;-68
2022/05/16 12:00:52;;;;;;;2.33;1.50;;;24.80;73.20;;;;;;10099176;28;20071;-72
2022/05/16 12:06:12;;;;;;;3.13;1.92;;;24.60;73.10;;;;;;10091502;28;20360;-69
2022/05/16 12:11:02;;;;;;;1.98;1.20;;;24.50;72.90;;;;;;10092750;28;20021;-69
2022/05/16 12:16:12;;;;;;;2.20;1.10;;;24.60;72.30;;;;;;10093367;28;20104;-69
2022/05/16 12:21:27;;;;;;;2.30;1.30;;;24.20;72.30;;;;;;10093049;28;20195;-74
2022/05/16 12:26:26;;;;;;;2.85;1.55;;;24.40;72.40;;;;;;10093211;28;20613;-70
2022/05/16 12:31:38;;;;;;;1.95;1.33;;;24.10;72.60;;;;;;10095784;28;20493;-68
2022/05/16 12:36:29;;;;;;;2.28;1.35;;;24.10;72.70;;;;;;10090251;28;20061;-66
2022/05/16 12:41:44;;;;;;;4.30;1.70;;;24.20;72.30;;;;;;10092366;28;20533;-67
2022/05/16 12:46:53;;;;;;;5.22;1.38;;;25.20;72.00;;;;;;10089862;28;20442;-66
2022/05/16 12:52:11;;;;;;;3.92;1.60;;;26.50;71.40;;;;;;10093148;28;20025;-66
2022/05/16 12:57:21;;;;;;;3.92;1.10;;;27.50;69.00;;;;;;10090660;28;20025;-66
2022/05/16 13:02:22;;;;;;;4.13;2.15;;;27.00;68.90;;;;;;10089277;28;20116;-66
2022/05/16 13:07:22;;;;;;;2.28;1.40;;;26.10;69.90;;;;;;10069462;28;20388;-66
2022/05/16 13:12:23;;;;;;;2.20;1.17;;;26.00;70.20;;;;;;10086458;28;20064;-65
2022/05/16 13:17:28;;;;;;;2.65;1.40;;;26.10;69.20;;;;;;10075131;28;20056;-66
2022/05/16 13:22:21;;;;;;;3.13;1.30;;;28.00;68.00;;;;;;10088434;28;20041;-66
2022/05/16 13:32:30;;;;;;;3.53;1.75;;;31.00;64.70;;;;;;10077089;28;20056;-66
2022/05/16 13:37:49;;;;;;;2.47;1.10;;;30.30;63.50;;;;;;10090459;28;20021;-66
2022/05/16 13:42:41;;;;;;;3.30;1.30;;;29.50;61.60;;;;;;10089862;28;20049;-65
2022/05/16 13:47:33;;;;;;;2.70;1.40;;;27.60;64.40;;;;;;10108332;28;20080;-64
2022/05/16 13:52:31;;;;;;;2.47;1.13;;;27.20;64.60;;;;;;10083471;28;20453;-64
2022/05/16 13:57:23;;;;;;;4.18;1.83;;;30.60;61.00;;;;;;10095983;28;20267;-66
2022/05/16 14:02:23;;;;;;;3.97;1.27;;;30.10;61.30;;;;;;10086520;28;20041;-65
2022/05/16 14:07:19;;;;;;;2.15;1.38;;;29.50;60.10;;;;;;10083017;28;20613;-64
2022/05/16 14:12:15;;;;;;;2.53;1.23;;;29.40;61.30;;;;;;10097241;28;20625;-66
2022/05/16 14:17:06;;;;;;;2.70;1.13;;;30.30;59.10;;;;;;10083812;28;20532;-68
2022/05/16 14:22:07;;;;;;;2.38;1.50;;;31.50;57.20;;;;;;10087542;28;20035;-67
2022/05/16 14:26:58;;;;;;;2.47;1.73;;;30.70;57.80;;;;;;10076792;28;20049;-67
2022/05/16 14:31:59;;;;;;;2.35;1.70;;;32.10;55.90;;;;;;10077884;28;20037;-66
2022/05/16 14:37:01;;;;;;;2.95;1.60;;;32.20;54.90;;;;;;10085922;28;20372;-67
2022/05/16 14:42:06;;;;;;;2.72;1.40;;;32.10;54.50;;;;;;10070177;28;20511;-66
2022/05/16 14:47:02;;;;;;;2.15;1.50;;;31.80;53.30;;;;;;10063086;28;20021;-66
2022/05/16 14:51:53;;;;;;;3.30;2.00;;;32.10;53.70;;;;;;10092905;28;20096;-66
2022/05/16 14:56:43;;;;;;;5.20;2.30;;;31.60;53.80;;;;;;10070731;28;20037;-65
2022/05/16 15:06:44;;;;;;;4.85;2.10;;;28.70;56.00;;;;;;10088163;28;20082;-65
2022/05/16 15:11:58;;;;;;;5.88;1.95;;;29.70;54.40;;;;;;10086309;28;20509;-61
2022/05/16 15:16:49;;;;;;;2.72;1.48;;;31.00;52.90;;;;;;10089403;28;20044;-64
2022/05/16 15:21:41;;;;;;;4.50;1.50;;;31.50;52.90;;;;;;10093351;28;20037;-67
2022/05/16 15:26:32;;;;;;;4.13;2.70;;;32.20;51.40;;;;;;10092426;28;20105;-64
2022/05/16 15:31:23;;;;;;;2.97;1.35;;;31.40;51.10;;;;;;10088866;28;20112;-66
2022/05/16 15:36:15;;;;;;;5.00;2.33;;;31.00;50.70;;;;;;10093009;28;20032;-66
2022/05/16 15:41:06;;;;;;;3.25;1.48;;;31.10;50.30;;;;;;10096072;28;20043;-68
2022/05/16 15:45:58;;;;;;;3.20;1.70;;;31.70;49.70;;;;;;10092852;28;20552;-67
2022/05/16 15:50:51;;;;;;;4.50;1.55;;;32.40;49.10;;;;;;10079662;28;20502;-66
2022/05/16 15:55:42;;;;;;;4.90;1.83;;;33.10;48.60;;;;;;10072541;28;20262;-67
2022/05/16 16:00:34;;;;;;;5.80;2.13;;;33.50;47.90;;;;;;10090923;28;20033;-67
2022/05/16 16:10:35;;;;;;;3.85;2.70;;;33.80;46.10;;;;;;10085255;28;20399;-68
2022/05/16 16:15:27;;;;;;;4.50;1.60;;;34.30;46.00;;;;;;10078226;28;20025;-67
2022/05/16 16:20:18;;;;;;;2.17;1.07;;;34.50;44.20;;;;;;10093184;28;20040;-66
2022/05/16 16:25:18;;;;;;;2.87;1.43;;;35.10;43.70;;;;;;10089280;28;20049;-68
2022/05/16 16:30:10;;;;;;;2.17;1.70;;;36.40;42.50;;;;;;10093122;28;20017;-68
2022/05/16 16:35:00;;;;;;;;;;;36.00;42.00;;;;;;10094864;28;20095;-69
2022/05/16 16:39:51;;;;;;;6.68;1.92;;;35.80;41.70;;;;;;10066090;28;20050;-67
2022/05/16 16:44:41;;;;;;;2.50;1.60;;;36.80;41.40;;;;;;10060290;28;20025;-69
2022/05/16 16:49:32;;;;;;;4.27;1.70;;;36.80;40.60;;;;;;10070465;28;20033;-68
2022/05/16 16:59:35;;;;;;;1.88;1.40;;;37.30;40.20;;;;;;10086024;28;20519;-68
2022/05/16 17:04:26;;;;;;;3.10;1.67;;;;;;;;;;10083383;28;20032;-68
2022/05/16 17:09:18;;;;;;;4.43;1.30;;;;;;;;;;10077885;28;20030;-67
2022/05/16 17:14:09;;;;;;;4.05;1.95;;;;;;;;;;10073183;28;20370;-69
2022/05/16 17:19:03;;;;;;;4.90;1.30;;;;;;;;;;10083771;28;20041;-68
2022/05/16 17:23:54;;;;;;;5.50;1.98;;;37.60;38.80;;;;;;10080336;28;20040;-69
2022/05/16 17:28:49;;;;;;;3.47;1.77;;;32.70;42.80;;;;;;10081228;28;20488;-70
2022/05/16 17:33:41;;;;;;;2.88;1.33;;;31.30;44.70;;;;;;10076211;28;20029;-68
2022/05/16 17:38:33;;;;;;;2.73;1.83;;;33.00;42.60;;;;;;10070568;28;20055;-67
2022/05/16 17:43:24;;;;;;;3.53;1.63;;;31.70;43.70;;;;;;10060539;28;20774;-68
2022/05/16 17:48:15;;;;;;;4.55;1.92;;;30.10;45.50;;;;;;10072070;28;20025;-67
2022/05/16 17:53:06;;;;;;;2.80;1.58;;;28.60;47.10;;;;;;10088791;28;20064;-67
2022/05/16 17:57:57;;;;;;;5.35;2.85;;;27.50;48.30;;;;;;10088880;28;20061;-67
2022/05/16 18:02:47;;;;;;;3.63;1.50;;;27.10;48.60;;;;;;10087359;28;20391;-68
2022/05/16 18:07:39;;;;;;;2.92;1.40;;;26.80;49.00;;;;;;10087323;28;20018;-66
2022/05/16 18:12:42;;;;;;;3.03;1.60;;;26.50;49.30;;;;;;10083364;28;20029;-68
2022/05/16 18:17:32;;;;;;;3.33;2.08;;;26.60;49.30;;;;;;10087927;28;20021;-69
2022/05/16 18:22:28;;;;;;;3.38;1.98;;;26.30;49.80;;;;;;10092139;28;20037;-68
2022/05/16 18:27:24;;;;;;;4.47;2.35;;;26.40;50.40;;;;;;10103656;28;20037;-66
2022/05/16 18:32:17;;;;;;;4.53;1.67;;;26.20;50.70;;;;;;10097439;28;20121;-68
2022/05/16 18:37:08;;;;;;;6.18;2.95;;;26.00;51.30;;;;;;10081725;28;20022;-68
2022/05/16 18:52:32;;;;;;;5.05;2.15;;;25.70;52.60;;;;;;10050760;28;20043;-66
2022/05/16 18:57:23;;;;;;;3.90;2.00;;;25.70;52.50;;;;;;10093890;28;20388;-67
2022/05/16 19:02:14;;;;;;;2.92;1.63;;;25.70;52.70;;;;;;10086182;28;20059;-68
2022/05/16 19:07:05;;;;;;;7.00;2.75;;;25.60;53.10;;;;;;10085565;28;20628;-67
2022/05/16 19:11:56;;;;;;;8.80;3.42;;;25.30;53.60;;;;;;10088854;28;20028;-67
2022/05/16 19:16:47;;;;;;;7.43;2.67;;;25.40;53.80;;;;;;10076665;28;20029;-67
2022/05/16 19:21:41;;;;;;;3.75;2.47;;;25.40;54.00;;;;;;10090594;28;20474;-70
2022/05/16 19:26:32;;;;;;;5.32;3.20;;;25.30;54.20;;;;;;10097583;28;20072;-66
2022/05/16 19:36:34;;;;;;;3.25;1.60;;;25.20;54.70;;;;;;10079750;28;20048;-67
2022/05/16 19:41:31;;;;;;;4.00;1.88;;;25.10;54.70;;;;;;10066547;28;20049;-69
2022/05/16 19:46:23;;;;;;;3.42;1.90;;;25.10;54.90;;;;;;10063275;28;20459;-69
2022/05/16 19:51:16;;;;;;;3.67;2.08;;;25.00;55.10;;;;;;10091760;28;20025;-68
2022/05/16 19:56:07;;;;;;;6.40;1.80;;;25.00;55.30;;;;;;10088145;28;20013;-69
2022/05/16 20:00:59;;;;;;;3.45;1.90;;;25.00;55.20;;;;;;10081946;28;20069;-69
2022/05/16 20:05:49;;;;;;;2.78;1.90;;;24.90;55.60;;;;;;10084771;28;20116;-68
2022/05/16 20:10:41;;;;;;;3.40;2.00;;;24.80;56.00;;;;;;10085112;28;20139;-69
2022/05/16 20:15:34;;;;;;;3.20;2.08;;;24.90;56.00;;;;;;10090420;28;20486;-67
2022/05/16 20:20:25;;;;;;;5.15;2.25;;;24.80;56.30;;;;;;10092872;28;20313;-69
2022/05/16 20:25:31;;;;;;;5.65;2.20;;;24.50;56.90;;;;;;10089494;28;20128;-69
2022/05/16 20:30:23;;;;;;;3.53;2.30;;;24.50;57.20;;;;;;10086068;28;20151;-69
2022/05/16 20:35:26;;;;;;;3.92;3.08;;;24.40;57.80;;;;;;10091935;28;20163;-68
2022/05/16 20:40:18;;;;;;;3.40;2.05;;;24.40;58.20;;;;;;10067241;28;20048;-67
2022/05/16 20:45:12;;;;;;;3.83;2.10;;;24.30;58.30;;;;;;10071804;28;20142;-68
2022/05/16 20:50:03;;;;;;;4.97;2.60;;;24.20;58.80;;;;;;10069507;28;20536;-68
2022/05/16 20:54:54;;;;;;;3.58;2.00;;;24.20;59.10;;;;;;10091264;28;20471;-67
2022/05/16 20:59:45;;;;;;;4.05;1.90;;;24.00;59.50;;;;;;10094195;28;20120;-68
2022/05/16 21:04:35;;;;;;;3.50;2.10;;;23.90;60.10;;;;;;10085447;28;20024;-67
2022/05/16 21:09:27;;;;;;;5.18;2.67;;;24.00;60.20;;;;;;10077626;28;20531;-64
2022/05/16 21:14:18;;;;;;;4.38;2.10;;;24.10;60.50;;;;;;10067706;28;20033;-62
2022/05/16 21:19:08;;;;;;;4.30;2.40;;;24.20;60.00;;;;;;10091103;28;20064;-60
2022/05/16 21:23:59;;;;;;;5.10;2.47;;;23.80;60.90;;;;;;10085496;28;20520;-61
2022/05/16 21:28:50;;;;;;;7.90;4.00;;;23.70;61.30;;;;;;10088765;28;20040;-62
2022/05/16 21:33:40;;;;;;;7.15;2.45;;;23.50;62.10;;;;;;10093338;28;20104;-62
2022/05/16 21:38:31;;;;;;;4.75;2.90;;;23.50;62.40;;;;;;10079818;28;20073;-60
2022/05/16 21:48:31;;;;;;;2.30;1.80;;;23.10;63.20;;;;;;10074179;28;20048;-61
2022/05/16 21:53:21;;;;;;;4.03;2.22;;;23.30;63.10;;;;;;10088385;28;20035;-62
2022/05/16 21:58:14;;;;;;;3.88;2.47;;;23.30;63.20;;;;;;10096225;28;20037;-61
2022/05/16 22:03:07;;;;;;;3.85;2.13;;;23.40;63.30;;;;;;10094881;28;20040;-62
2022/05/16 22:07:58;;;;;;;5.45;2.45;;;23.40;63.40;;;;;;10084247;28;20108;-62
2022/05/16 22:12:49;;;;;;;5.93;2.58;;;23.20;63.90;;;;;;10099942;28;20506;-62
2022/05/16 22:17:40;;;;;;;5.38;3.28;;;23.00;64.30;;;;;;10095018;28;20025;-64
2022/05/16 22:22:30;;;;;;;3.88;2.65;;;22.90;64.50;;;;;;10096471;28;20040;-63
2022/05/16 22:27:21;;;;;;;4.53;2.80;;;22.80;65.00;;;;;;10094208;28;20029;-64
2022/05/16 22:32:12;;;;;;;7.32;4.40;;;22.70;65.30;;;;;;10098410;28;20403;-61
2022/05/16 22:37:03;;;;;;;3.97;3.00;;;22.40;66.30;;;;;;10083653;28;20073;-61
2022/05/16 22:41:53;;;;;;;4.07;2.90;;;22.40;66.10;;;;;;10071543;28;20037;-62
2022/05/16 22:46:44;;;;;;;8.57;3.45;;;22.40;66.70;;;;;;10063374;28;20013;-63
2022/05/16 22:51:35;;;;;;;4.55;2.65;;;22.40;66.70;;;;;;10076709;28;20025;-62
2022/05/16 22:56:26;;;;;;;3.08;2.05;;;22.40;67.40;;;;;;10092788;28;20018;-69
2022/05/16 23:01:16;;;;;;;4.57;2.70;;;22.50;67.30;;;;;;10090171;28;20472;-62
2022/05/16 23:06:10;;;;;;;6.60;2.72;;;22.40;67.70;;;;;;10084392;28;20066;-60
2022/05/16 23:11:04;;;;;;;6.53;3.08;;;22.40;68.10;;;;;;10096427;28;20021;-63
2022/05/16 23:15:54;;;;;;;5.10;3.25;;;22.20;68.60;;;;;;10093695;28;20485;-62
2022/05/16 23:20:46;;;;;;;9.75;3.10;;;22.20;68.90;;;;;;10095623;28;20103;-64
2022/05/16 23:25:36;;;;;;;6.07;2.83;;;22.20;69.10;;;;;;10092773;28;20063;-65
2022/05/16 23:30:27;;;;;;;3.92;3.33;;;22.10;69.60;;;;;;10091696;28;20028;-62
2022/05/16 23:35:20;;;;;;;3.85;2.72;;;22.00;69.80;;;;;;10083938;28;20028;-67
2022/05/16 23:40:14;;;;;;;7.32;3.72;;;21.90;70.00;;;;;;10068161;28;20076;-62
2022/05/16 23:45:06;;;;;;;7.28;2.95;;;21.90;70.50;;;;;;10074735;28;20376;-61
2022/05/16 23:49:57;;;;;;;4.82;2.97;;;21.90;70.90;;;;;;10057571;28;20032;-63
2022/05/16 23:54:48;;;;;;;6.68;3.15;;;21.80;71.40;;;;;;10085659;28;20025;-59
2022/05/16 23:59:38;;;;;;;4.38;2.58;;;21.70;71.60;;;;;;10085243;28;20041;-64
